createdAt,value
2022-09-23T00:01:19.192Z,14.44
2022-09-23T00:03:49.124Z,14.43
2022-09-23T00:06:21.644Z,14.40
2022-09-23T00:08:51.440Z,14.36
2022-09-23T00:11:22.451Z,14.35
2022-09-23T00:13:53.782Z,14.32
2022-09-23T00:16:26.485Z,14.30
2022-09-23T00:18:54.913Z,14.31
2022-09-23T00:21:25.433Z,14.29
2022-09-23T00:23:54.907Z,14.28
2022-09-23T00:26:24.698Z,14.26
2022-09-23T00:28:53.405Z,14.25
2022-09-23T00:31:24.551Z,14.24
2022-09-23T00:33:57.763Z,14.22
2022-09-23T00:36:28.906Z,14.21
2022-09-23T00:38:57.738Z,14.20
2022-09-23T00:41:27.152Z,14.20
2022-09-23T00:43:58.773Z,14.18
2022-09-23T00:46:35.487Z,14.15
2022-09-23T00:49:10.369Z,14.15
2022-09-23T00:51:45.754Z,14.13
2022-09-23T00:54:14.479Z,14.11
2022-09-23T00:56:42.851Z,14.09
2022-09-23T00:59:11.569Z,14.06
2022-09-23T01:01:40.915Z,14.03
2022-09-23T01:04:09.927Z,14.01
2022-09-23T01:06:39.644Z,13.99
2022-09-23T01:09:08.126Z,13.97
2022-09-23T01:11:48.445Z,13.94
2022-09-23T01:14:38.038Z,13.89
2022-09-23T01:17:17.316Z,13.87
2022-09-23T01:20:29.562Z,13.81
2022-09-23T01:23:14.268Z,13.79
2022-09-23T01:26:08.228Z,13.77
2022-09-23T01:29:03.453Z,13.77
2022-09-23T01:31:44.516Z,13.76
2022-09-23T01:34:16.734Z,13.77
2022-09-23T01:36:51.709Z,13.78
2022-09-23T01:39:35.232Z,13.78
2022-09-23T01:42:17.020Z,13.80
2022-09-23T01:44:52.946Z,13.81
2022-09-23T01:47:29.358Z,13.83
2022-09-23T01:50:02.939Z,13.81
2022-09-23T01:52:48.295Z,13.81
2022-09-23T01:55:25.902Z,13.82
2022-09-23T01:58:02.519Z,13.83
2022-09-23T02:00:36.051Z,13.83
2022-09-23T02:03:15.252Z,13.84
2022-09-23T02:05:49.280Z,13.84
2022-09-23T02:08:24.107Z,13.83
2022-09-23T02:10:58.779Z,13.82
2022-09-23T02:13:33.564Z,13.79
2022-09-23T02:16:08.686Z,13.79
2022-09-23T02:18:46.567Z,13.77
2022-09-23T02:21:18.859Z,13.75
2022-09-23T02:23:53.211Z,13.74
2022-09-23T02:26:29.588Z,13.73
2022-09-23T02:29:09.146Z,13.69
2022-09-23T02:31:44.202Z,13.69
2022-09-23T02:34:25.037Z,13.67
2022-09-23T02:37:17.162Z,13.62
2022-09-23T02:39:58.705Z,13.61
2022-09-23T02:42:38.922Z,13.59
2022-09-23T02:45:08.299Z,13.58
2022-09-23T02:47:41.603Z,13.57
2022-09-23T02:50:12.140Z,13.55
2022-09-23T02:52:41.074Z,13.56
2022-09-23T02:55:13.105Z,13.55
2022-09-23T02:57:41.494Z,13.54
2022-09-23T03:00:12.482Z,13.51
2022-09-23T03:03:03.936Z,13.48
2022-09-23T03:05:39.955Z,13.45
2022-09-23T03:08:25.809Z,13.43
2022-09-23T03:11:01.966Z,13.41
2022-09-23T03:13:38.536Z,13.39
2022-09-23T03:16:16.993Z,13.34
2022-09-23T03:18:54.114Z,13.31
2022-09-23T03:21:28.373Z,13.30
2022-09-23T03:24:00.544Z,13.30
2022-09-23T03:26:34.276Z,13.27
2022-09-23T03:29:05.065Z,13.26
2022-09-23T03:31:34.554Z,13.25
2022-09-23T03:34:09.682Z,13.24
2022-09-23T03:36:53.990Z,13.23
2022-09-23T03:39:34.269Z,13.23
2022-09-23T03:42:12.674Z,13.23
2022-09-23T03:44:45.488Z,13.29
2022-09-23T03:47:14.917Z,13.32
2022-09-23T03:49:48.417Z,13.32
2022-09-23T03:52:19.210Z,13.34
2022-09-23T03:54:47.762Z,13.35
2022-09-23T03:57:16.470Z,13.35
2022-09-23T03:59:44.904Z,13.36
2022-09-23T04:02:13.328Z,13.36
2022-09-23T04:04:41.770Z,13.37
2022-09-23T04:07:11.163Z,13.38
2022-09-23T04:09:42.021Z,13.36
2022-09-23T04:12:14.850Z,13.34
2022-09-23T04:14:43.547Z,13.33
2022-09-23T04:17:12.905Z,13.32
2022-09-23T04:19:41.402Z,13.31
2022-09-23T04:22:10.618Z,13.29
2022-09-23T04:24:40.341Z,13.26
2022-09-23T04:27:08.649Z,13.25
2022-09-23T04:29:36.987Z,13.22
2022-09-23T04:32:05.419Z,13.19
2022-09-23T04:34:33.903Z,13.18
2022-09-23T04:37:02.193Z,13.17
2022-09-23T04:39:30.511Z,13.17
2022-09-23T04:42:00.236Z,13.15
2022-09-23T04:44:29.598Z,13.15
2022-09-23T04:46:58.477Z,13.14
2022-09-23T04:49:27.032Z,13.14
2022-09-23T04:51:55.863Z,13.13
2022-09-23T04:54:24.182Z,13.14
2022-09-23T04:56:52.558Z,13.15
2022-09-23T04:59:22.219Z,13.14
2022-09-23T05:01:51.822Z,13.15
2022-09-23T05:04:20.183Z,13.16
2022-09-23T05:06:49.286Z,13.17
2022-09-23T05:09:18.804Z,13.16
2022-09-23T05:11:47.396Z,13.17
2022-09-23T05:14:15.998Z,13.17
2022-09-23T05:16:45.780Z,13.18
2022-09-23T05:19:14.216Z,13.19
2022-09-23T05:21:42.550Z,13.18
2022-09-23T05:24:10.927Z,13.18
2022-09-23T05:26:39.406Z,13.16
2022-09-23T05:29:07.983Z,13.17
2022-09-23T05:31:36.935Z,13.16
2022-09-23T05:34:07.337Z,13.17
2022-09-23T05:36:39.010Z,13.20
2022-09-23T05:39:09.231Z,13.24
2022-09-23T05:41:38.328Z,13.29
2022-09-23T05:44:06.849Z,13.33
2022-09-23T05:46:35.569Z,13.38
2022-09-23T05:49:07.566Z,13.42
2022-09-23T05:51:36.560Z,13.49
2022-09-23T05:54:05.811Z,13.55
2022-09-23T05:56:35.738Z,13.61
2022-09-23T05:59:05.723Z,13.67
2022-09-23T06:01:36.799Z,13.75
2022-09-23T06:04:08.670Z,13.82
2022-09-23T06:06:40.137Z,13.90
2022-09-23T06:09:13.490Z,13.96
2022-09-23T06:11:42.530Z,14.03
2022-09-23T06:14:13.955Z,14.12
2022-09-23T06:16:43.168Z,14.21
2022-09-23T06:19:13.023Z,14.30
2022-09-23T06:21:41.954Z,14.39
2022-09-23T06:24:14.878Z,14.47
2022-09-23T06:26:45.160Z,14.59
2022-09-23T06:29:14.554Z,14.68
2022-09-23T06:31:43.461Z,14.78
2022-09-23T06:34:14.971Z,14.88
2022-09-23T06:36:45.848Z,14.99
2022-09-23T06:39:15.761Z,15.08
2022-09-23T06:41:44.765Z,15.18
2022-09-23T06:44:13.429Z,15.29
2022-09-23T06:46:41.958Z,15.37
2022-09-23T06:49:13.491Z,15.46
2022-09-23T06:51:43.474Z,15.54
2022-09-23T06:54:12.092Z,15.62
2022-09-23T06:56:40.721Z,15.72
2022-09-23T06:59:13.202Z,15.84
2022-09-23T07:01:41.787Z,16.00
2022-09-23T07:04:10.748Z,16.13
2022-09-23T07:06:39.189Z,16.27
2022-09-23T07:09:11.115Z,16.38
2022-09-23T07:11:39.501Z,16.52
2022-09-23T07:14:07.994Z,16.62
2022-09-23T07:16:36.307Z,16.68
2022-09-23T07:19:04.641Z,16.77
2022-09-23T07:21:33.365Z,16.89
2022-09-23T07:24:01.979Z,17.02
2022-09-23T07:26:34.186Z,17.11
2022-09-23T07:29:05.194Z,17.18
2022-09-23T07:31:39.661Z,17.26
2022-09-23T07:34:11.497Z,17.37
2022-09-23T07:36:41.709Z,17.51
2022-09-23T07:39:12.767Z,17.64
2022-09-23T07:41:44.612Z,17.75
2022-09-23T07:44:13.750Z,17.84
2022-09-23T07:46:42.419Z,17.95
2022-09-23T07:49:11.414Z,18.04
2022-09-23T07:51:41.891Z,18.15
2022-09-23T07:54:15.131Z,18.26
2022-09-23T07:56:45.499Z,18.36
2022-09-23T07:59:18.396Z,18.44
2022-09-23T08:01:49.027Z,18.57
2022-09-23T08:04:21.215Z,18.66
2022-09-23T08:06:52.245Z,18.74
2022-09-23T08:09:23.975Z,18.81
2022-09-23T08:11:54.193Z,18.91
2022-09-23T08:14:23.481Z,18.98
2022-09-23T08:16:52.961Z,19.05
2022-09-23T08:19:21.678Z,19.12
2022-09-23T08:21:52.260Z,19.20
2022-09-23T08:24:24.288Z,19.26
2022-09-23T08:26:55.509Z,19.29
2022-09-23T08:29:26.428Z,19.33
2022-09-23T08:31:55.725Z,19.41
2022-09-23T08:34:24.794Z,19.46
2022-09-23T08:36:53.416Z,19.54
2022-09-23T08:39:23.192Z,19.64
2022-09-23T08:42:08.270Z,19.70
2022-09-23T08:44:50.401Z,19.74
2022-09-23T08:47:24.668Z,19.84
2022-09-23T08:50:01.404Z,19.92
2022-09-23T08:52:36.979Z,20.02
2022-09-23T08:55:07.309Z,20.10
2022-09-23T08:58:02.311Z,20.17
2022-09-23T09:00:42.248Z,20.24
2022-09-23T09:03:23.949Z,20.29
2022-09-23T09:05:54.912Z,20.36
2022-09-23T09:08:29.799Z,20.40
2022-09-23T09:11:00.157Z,20.45
2022-09-23T09:13:35.739Z,20.47
2022-09-23T09:16:48.290Z,20.49
2022-09-23T09:19:43.839Z,20.48
2022-09-23T09:22:21.330Z,20.53
2022-09-23T09:24:50.982Z,20.56
2022-09-23T09:27:19.576Z,20.60
2022-09-23T09:29:53.684Z,20.62
2022-09-23T09:32:36.605Z,20.64
2022-09-23T09:35:20.167Z,20.66
2022-09-23T09:37:49.507Z,20.69
2022-09-23T09:40:20.544Z,20.69
2022-09-23T09:42:51.438Z,20.68
2022-09-23T09:45:33.900Z,20.68
2022-09-23T09:48:12.002Z,20.74
2022-09-23T09:50:49.273Z,20.77
2022-09-23T09:53:26.830Z,20.78
2022-09-23T09:56:05.975Z,20.73
2022-09-23T09:58:46.081Z,20.71
2022-09-23T10:01:24.882Z,20.72
2022-09-23T10:03:59.198Z,20.75
2022-09-23T10:06:32.512Z,20.74
2022-09-23T10:09:19.299Z,20.68
2022-09-23T10:12:14.969Z,20.62
2022-09-23T10:14:44.006Z,20.64
2022-09-23T10:17:21.329Z,20.67
2022-09-23T10:19:52.482Z,20.73
2022-09-23T10:22:29.920Z,20.76
2022-09-23T10:25:03.998Z,20.78
2022-09-23T10:27:36.057Z,20.80
2022-09-23T10:30:21.711Z,20.93
2022-09-23T10:32:54.983Z,21.25
2022-09-23T10:35:25.637Z,21.66
2022-09-23T10:37:55.818Z,22.12
2022-09-23T10:40:49.391Z,22.57
2022-09-23T10:43:46.195Z,23.12
2022-09-23T10:46:41.517Z,23.62
2022-09-23T10:50:14.211Z,23.92
2022-09-23T10:53:05.550Z,24.17
2022-09-23T10:55:49.614Z,24.56
2022-09-23T10:58:48.510Z,25.09
2022-09-23T11:01:31.247Z,25.63
2022-09-23T11:04:42.159Z,26.23
2022-09-23T11:07:23.886Z,26.82
2022-09-23T11:10:45.874Z,27.21
2022-09-23T11:13:35.768Z,27.76
2022-09-23T11:16:15.415Z,28.23
2022-09-23T11:19:06.102Z,28.72
2022-09-23T11:22:10.801Z,29.17
2022-09-23T11:25:23.872Z,29.64
2022-09-23T11:28:13.346Z,29.96
2022-09-23T11:30:54.710Z,30.29
2022-09-23T11:33:40.964Z,30.57
2022-09-23T11:36:13.634Z,30.84
2022-09-23T11:38:48.972Z,31.12
2022-09-23T11:41:24.857Z,31.41
2022-09-23T11:44:03.370Z,31.84
2022-09-23T11:46:40.072Z,32.14
2022-09-23T11:49:17.082Z,32.38
2022-09-23T11:52:02.637Z,32.49
2022-09-23T11:54:41.551Z,32.81
2022-09-23T11:57:29.228Z,33.09
2022-09-23T12:00:04.023Z,33.36
2022-09-23T12:02:58.975Z,33.68
2022-09-23T12:05:34.537Z,34.14
2022-09-23T12:08:13.445Z,34.57
2022-09-23T12:10:49.950Z,34.93
2022-09-23T12:13:27.738Z,35.34
2022-09-23T12:16:27.416Z,35.76
2022-09-23T12:19:15.689Z,36.14
2022-09-23T12:22:17.856Z,36.39
2022-09-23T12:24:55.703Z,36.56
2022-09-23T12:27:37.320Z,36.71
2022-09-23T12:30:17.791Z,36.75
2022-09-23T12:32:46.658Z,37.04
2022-09-23T12:35:32.171Z,37.38
2022-09-23T12:38:01.982Z,37.75
2022-09-23T12:40:36.563Z,38.11
2022-09-23T12:43:05.106Z,38.48
2022-09-23T12:45:40.268Z,38.56
2022-09-23T12:48:43.975Z,38.26
2022-09-23T12:51:21.792Z,37.95
2022-09-23T12:54:24.374Z,37.92
2022-09-23T12:57:05.386Z,38.25
2022-09-23T12:59:57.936Z,38.46
2022-09-23T13:02:38.478Z,38.58
2022-09-23T13:05:39.712Z,38.67
2022-09-23T13:08:13.547Z,38.88
2022-09-23T13:10:48.390Z,38.88
2022-09-23T13:13:24.682Z,38.63
2022-09-23T13:15:55.079Z,38.65
2022-09-23T13:18:54.163Z,38.87
2022-09-23T13:22:09.008Z,39.06
2022-09-23T13:24:44.521Z,39.22
2022-09-23T13:27:29.472Z,39.38
2022-09-23T13:30:06.328Z,39.21
2022-09-23T13:32:40.559Z,39.16
2022-09-23T13:35:22.771Z,39.36
2022-09-23T13:37:51.423Z,39.55
2022-09-23T13:40:24.936Z,39.62
2022-09-23T13:42:59.373Z,39.71
2022-09-23T13:45:30.998Z,39.89
2022-09-23T13:48:06.104Z,40.12
2022-09-23T13:50:40.945Z,40.16
2022-09-23T13:53:12.501Z,39.64
2022-09-23T13:55:41.684Z,38.55
2022-09-23T13:58:19.681Z,37.14
2022-09-23T14:00:49.520Z,35.78
2022-09-23T14:03:35.920Z,34.50
2022-09-23T14:06:12.879Z,33.34
2022-09-23T14:08:43.546Z,32.33
2022-09-23T14:11:17.409Z,31.43
2022-09-23T14:13:48.626Z,30.71
2022-09-23T14:16:19.695Z,30.05
2022-09-23T14:18:50.924Z,29.48
2022-09-23T14:21:35.240Z,28.92
2022-09-23T14:24:19.145Z,28.35
2022-09-23T14:26:50.891Z,27.90
2022-09-23T14:29:23.996Z,27.48
2022-09-23T14:31:57.761Z,27.06
2022-09-23T14:34:48.390Z,26.64
2022-09-23T14:37:46.833Z,26.30
2022-09-23T14:40:18.769Z,25.96
2022-09-23T14:42:51.456Z,25.66
2022-09-23T14:45:23.752Z,25.41
2022-09-23T14:47:57.965Z,25.19
2022-09-23T14:50:40.759Z,24.96
2022-09-23T14:53:34.922Z,24.68
2022-09-23T14:56:16.650Z,24.55
2022-09-23T14:58:52.689Z,24.41
2022-09-23T15:01:39.773Z,24.26
2022-09-23T15:04:30.512Z,24.14
2022-09-23T15:07:03.176Z,24.03
2022-09-23T15:09:37.123Z,23.93
2022-09-23T15:12:13.117Z,23.80
2022-09-23T15:14:46.564Z,23.70
2022-09-23T15:17:26.409Z,23.58
2022-09-23T15:19:59.763Z,23.46
2022-09-23T15:22:28.566Z,23.41
2022-09-23T15:25:17.671Z,23.28
2022-09-23T15:28:00.192Z,23.20
2022-09-23T15:30:28.839Z,23.12
2022-09-23T15:32:57.581Z,23.03
2022-09-23T15:35:27.417Z,22.95
2022-09-23T15:38:00.460Z,22.86
2022-09-23T15:40:32.488Z,22.76
2022-09-23T15:43:03.634Z,22.68
2022-09-23T15:45:37.720Z,22.60
2022-09-23T15:48:12.908Z,22.52
2022-09-23T15:50:42.793Z,22.45
2022-09-23T15:53:16.253Z,22.36
2022-09-23T15:55:46.422Z,22.28
2022-09-23T15:58:14.919Z,22.21
2022-09-23T16:00:43.467Z,22.12
2022-09-23T16:03:15.722Z,22.06
2022-09-23T16:05:46.793Z,21.98
2022-09-23T16:08:15.787Z,21.90
2022-09-23T16:10:45.662Z,21.83
2022-09-23T16:13:15.644Z,21.74
2022-09-23T16:15:44.883Z,21.71
2022-09-23T16:18:14.006Z,21.64
2022-09-23T16:20:45.488Z,21.57
2022-09-23T16:23:35.516Z,21.48
2022-09-23T16:26:08.814Z,21.44
2022-09-23T16:28:37.302Z,21.38
2022-09-23T16:31:06.338Z,21.32
2022-09-23T16:33:34.832Z,21.25
2022-09-23T16:36:03.873Z,21.20
2022-09-23T16:38:32.845Z,21.14
2022-09-23T16:41:01.479Z,21.06
2022-09-23T16:43:32.765Z,20.98
2022-09-23T16:46:01.279Z,20.90
2022-09-23T16:48:29.708Z,20.84
2022-09-23T16:50:58.171Z,20.78
2022-09-23T16:53:29.816Z,20.72
2022-09-23T16:55:59.020Z,20.65
2022-09-23T16:58:27.410Z,20.57
2022-09-23T17:01:18.065Z,20.49
2022-09-23T17:03:47.758Z,20.42
2022-09-23T17:06:19.438Z,20.35
2022-09-23T17:08:49.038Z,20.29
2022-09-23T17:11:17.665Z,20.24
2022-09-23T17:13:46.563Z,20.18
2022-09-23T17:16:26.855Z,20.14
2022-09-23T17:18:56.593Z,20.09
2022-09-23T17:21:27.005Z,20.06
2022-09-23T17:23:56.435Z,20.02
2022-09-23T17:26:27.410Z,19.96
2022-09-23T17:28:58.831Z,19.92
2022-09-23T17:31:28.806Z,19.88
2022-09-23T17:33:57.468Z,19.83
2022-09-23T17:36:25.872Z,19.80
2022-09-23T17:38:55.061Z,19.77
2022-09-23T17:41:23.450Z,19.72
2022-09-23T17:43:56.711Z,19.65
2022-09-23T17:46:25.360Z,19.60
2022-09-23T17:48:55.748Z,19.55
2022-09-23T17:51:25.659Z,19.50
2022-09-23T17:53:54.221Z,19.46
2022-09-23T17:56:25.502Z,19.39
2022-09-23T17:58:55.010Z,19.36
2022-09-23T18:01:25.552Z,19.31
2022-09-23T18:03:57.923Z,19.26
2022-09-23T18:06:28.852Z,19.23
2022-09-23T18:08:57.260Z,19.23
2022-09-23T18:11:28.048Z,19.19
2022-09-23T18:13:58.505Z,19.15
2022-09-23T18:16:29.572Z,19.13
2022-09-23T18:19:01.826Z,19.11
2022-09-23T18:21:33.804Z,19.08
2022-09-23T18:26:52.616Z,19.00
2022-09-23T18:29:20.981Z,18.96
2022-09-23T18:31:51.074Z,18.92
2022-09-23T18:34:21.268Z,18.88
2022-09-23T18:36:49.627Z,18.86
2022-09-23T18:39:18.057Z,18.82
2022-09-23T18:41:46.433Z,18.79
2022-09-23T18:44:15.883Z,18.75
2022-09-23T18:46:44.861Z,18.73
2022-09-23T18:49:30.018Z,18.70
2022-09-23T18:51:59.926Z,18.66
2022-09-23T18:54:30.401Z,18.63
2022-09-23T18:56:59.367Z,18.59
2022-09-23T18:59:29.115Z,18.55
2022-09-23T19:01:58.105Z,18.53
2022-09-23T19:04:29.008Z,18.48
2022-09-23T19:06:59.219Z,18.44
2022-09-23T19:09:27.702Z,18.41
2022-09-23T19:11:56.505Z,18.40
2022-09-23T19:14:25.531Z,18.36
2022-09-23T19:16:53.881Z,18.33
2022-09-23T19:19:22.400Z,18.33
2022-09-23T19:21:50.831Z,18.30
2022-09-23T19:24:21.090Z,18.27
2022-09-23T19:26:50.455Z,18.24
2022-09-23T19:29:21.859Z,18.20
2022-09-23T19:31:51.164Z,18.17
2022-09-23T19:34:23.968Z,18.13
2022-09-23T19:36:53.030Z,18.11
2022-09-23T19:39:24.859Z,18.07
2022-09-23T19:41:55.658Z,18.05
2022-09-23T19:44:25.231Z,18.02
2022-09-23T19:46:56.674Z,18.00
2022-09-23T19:49:26.485Z,17.96
2022-09-23T19:51:56.602Z,17.95
2022-09-23T19:54:27.567Z,17.92
2022-09-23T19:56:56.563Z,17.90
2022-09-23T19:59:26.466Z,17.87
2022-09-23T20:01:55.040Z,17.85
2022-09-23T20:04:23.940Z,17.82
2022-09-23T20:06:52.351Z,17.78
2022-09-23T20:09:21.038Z,17.74
2022-09-23T20:11:51.069Z,17.68
2022-09-23T20:14:19.464Z,17.64
2022-09-23T20:16:48.111Z,17.58
2022-09-23T20:19:16.638Z,17.54
2022-09-23T20:21:45.012Z,17.51
2022-09-23T20:24:13.748Z,17.46
2022-09-23T20:26:59.376Z,17.43
2022-09-23T20:29:29.065Z,17.39
2022-09-23T20:31:59.273Z,17.37
2022-09-23T20:34:29.924Z,17.32
2022-09-23T20:36:59.302Z,17.33
2022-09-23T20:39:28.127Z,17.31
2022-09-23T20:41:56.501Z,17.26
2022-09-23T20:44:25.126Z,17.22
2022-09-23T20:46:54.984Z,17.18
2022-09-23T20:49:23.473Z,17.15
2022-09-23T20:51:52.054Z,17.11
2022-09-23T20:54:20.472Z,17.07
2022-09-23T20:56:48.876Z,17.03
2022-09-23T20:59:18.008Z,17.00
2022-09-23T21:01:47.584Z,16.98
2022-09-23T21:04:18.278Z,16.92
2022-09-23T21:06:47.241Z,16.88
2022-09-23T21:09:15.565Z,16.85
2022-09-23T21:11:43.926Z,16.82
2022-09-23T21:14:12.309Z,16.78
2022-09-23T21:16:40.659Z,16.76
2022-09-23T21:19:09.169Z,16.72
2022-09-23T21:21:39.220Z,16.68
2022-09-23T21:24:39.781Z,16.65
2022-09-23T21:26:56.231Z,16.59
2022-09-23T21:29:24.541Z,16.56
2022-09-23T21:31:52.943Z,16.52
2022-09-23T21:34:21.358Z,16.50
2022-09-23T21:36:51.031Z,16.47
2022-09-23T21:39:19.537Z,16.43
2022-09-23T21:41:47.873Z,16.41
2022-09-23T21:44:16.234Z,16.38
2022-09-23T21:46:44.685Z,16.36
2022-09-23T21:49:13.314Z,16.34
2022-09-23T21:51:42.478Z,16.32
2022-09-23T21:54:16.970Z,16.29
2022-09-23T21:56:45.821Z,16.28
2022-09-23T21:59:14.208Z,16.26
2022-09-23T22:01:45.096Z,16.25
2022-09-23T22:04:17.607Z,16.23
2022-09-23T22:06:48.891Z,16.22
2022-09-23T22:09:21.969Z,16.20
2022-09-23T22:12:11.240Z,16.17
2022-09-23T22:14:39.751Z,16.14
2022-09-23T22:17:11.507Z,16.12
2022-09-23T22:19:46.459Z,16.12
2022-09-23T22:22:18.482Z,16.11
2022-09-23T22:24:49.707Z,16.08
2022-09-23T22:27:20.510Z,16.08
2022-09-23T22:30:06.511Z,16.06
2022-09-23T22:32:54.278Z,16.04
2022-09-23T22:35:23.598Z,16.01
2022-09-23T22:37:51.895Z,15.99
2022-09-23T22:40:24.261Z,15.97
2022-09-23T22:42:52.751Z,15.94
2022-09-23T22:45:21.233Z,15.92
2022-09-23T22:47:53.252Z,15.89
2022-09-23T22:50:21.568Z,15.86
2022-09-23T22:52:50.032Z,15.84
2022-09-23T22:55:18.552Z,15.81
2022-09-23T22:57:51.339Z,15.78
2022-09-23T23:00:20.749Z,15.75
2022-09-23T23:02:49.100Z,15.74
2022-09-23T23:05:17.636Z,15.72
2022-09-23T23:07:45.998Z,15.69
2022-09-23T23:10:17.235Z,15.67
2022-09-23T23:12:47.497Z,15.65
2022-09-23T23:15:16.357Z,15.63
2022-09-23T23:17:44.760Z,15.61
2022-09-23T23:20:13.348Z,15.60
2022-09-23T23:22:41.703Z,15.58
2022-09-23T23:25:10.854Z,15.55
2022-09-23T23:27:39.238Z,15.52
2022-09-23T23:30:10.979Z,15.51
2022-09-23T23:32:39.407Z,15.48
2022-09-23T23:35:09.130Z,15.45
2022-09-23T23:37:37.446Z,15.43
2022-09-23T23:40:07.422Z,15.39
2022-09-23T23:42:36.170Z,15.36
2022-09-23T23:45:05.388Z,15.31
2022-09-23T23:47:36.013Z,15.26
2022-09-23T23:50:05.737Z,15.20
2022-09-23T23:52:34.094Z,15.15
2022-09-23T23:55:02.521Z,15.09
2022-09-23T23:57:30.858Z,15.05
2022-09-23T23:59:59.196Z,15.00
